Time;durP1;ratioP1;P1;durP2;ratioP2;P2;SDS_P1;SDS_P2;PMS_P1;PMS_P2;Temp;Humidity;BMP_temperature;BMP_pressure;BME280_temperature;BME280_humidity;BME280_pressure;Samples;Min_cycle;Max_cycle;Signal;HPM_P1;HPM_P2
2022/04/08 00:01:52;;;;;;;1.50;1.10;;;;;;;;;;4909119;29;20044;-63
2022/04/08 00:04:18;;;;;;;3.85;1.35;;;;;;;;;;4906818;29;20107;-64
2022/04/08 00:06:44;;;;;;;3.83;1.40;;;;;;;;;;4909757;29;20040;-63
2022/04/08 00:09:10;;;;;;;2.20;1.35;;;;;;;;;;4909940;29;20158;-63
2022/04/08 00:11:36;;;;;;;3.05;1.10;;;;;;;;;;4908822;29;20128;-64
2022/04/08 00:14:02;;;;;;;1.02;0.90;;;;;;;;;;4908904;29;20135;-65
2022/04/08 00:16:28;;;;;;;2.00;1.20;;;;;;;;;;4913471;29;20055;-63
2022/04/08 00:18:54;;;;;;;2.45;1.20;;;;;;;;;;4900937;29;20087;-63
2022/04/08 00:21:19;;;;;;;2.42;1.20;;;;;;;;;;4912117;29;20432;-64
2022/04/08 00:23:45;;;;;;;3.75;1.20;;;;;;;;;;4912314;29;20489;-64
2022/04/08 00:26:11;;;;;;;1.67;1.00;;;;;;;;;;4914884;29;20134;-64
2022/04/08 00:28:37;;;;;;;3.13;1.20;;;;;;;;;;4914010;29;20044;-62
2022/04/08 00:31:04;;;;;;;5.13;1.25;;;;;;;;;;4909603;29;20047;-63
2022/04/08 00:33:32;;;;;;;4.35;1.23;;;;;;;;;;4907742;29;20131;-63
2022/04/08 00:35:57;;;;;;;2.70;1.27;;;;;;;;;;4911107;29;20048;-64
2022/04/08 00:38:23;;;;;;;2.22;1.05;;;;;;;;;;4916216;29;20497;-63
2022/04/08 00:40:49;;;;;;;3.28;1.20;;;;;;;;;;4910708;29;20413;-64
2022/04/08 00:43:18;;;;;;;3.35;1.15;;;;;;;;;;4916084;29;20465;-65
2022/04/08 00:45:45;;;;;;;2.28;1.30;;;;;;;;;;4913511;29;20052;-67
2022/04/08 00:48:12;;;;;;;2.75;1.10;;;;;;;;;;4907662;29;20048;-63
2022/04/08 00:50:39;;;;;;;4.43;1.30;;;;;;;;;;4916763;29;20055;-64
2022/04/08 00:53:06;;;;;;;2.20;1.33;;;;;;;;;;4909335;29;20421;-63
2022/04/08 00:55:37;;;;;;;1.55;1.20;;;;;;;;;;4913589;29;20127;-65
2022/04/08 00:58:04;;;;;;;1.95;1.02;;;;;;;;;;4921329;29;20505;-62
2022/04/08 01:00:36;;;;;;;4.32;1.25;;;;;;;;;;4911936;29;20080;-67
2022/04/08 01:03:03;;;;;;;2.85;1.30;;;;;;;;;;4910238;29;20048;-65
2022/04/08 01:05:29;;;;;;;2.67;1.23;;;;;;;;;;4911595;29;20103;-64
2022/04/08 01:07:55;;;;;;;2.72;1.30;;;;;;;;;;4914812;29;20147;-64
2022/04/08 01:10:22;;;;;;;3.72;1.10;;;;;;;;;;4914450;29;20355;-63
2022/04/08 01:12:49;;;;;;;1.92;1.30;;;;;;;;;;4912669;29;20056;-63
2022/04/08 01:15:20;;;;;;;2.03;1.20;;;;;;;;;;4912129;29;20040;-63
2022/04/08 01:17:47;;;;;;;2.97;1.30;;;;;;;;;;4905483;29;20149;-63
2022/04/08 01:20:13;;;;;;;2.70;1.15;;;;;;;;;;4914302;29;20044;-64
2022/04/08 01:22:39;;;;;;;3.72;1.20;;;;;;;;;;4915004;29;20652;-66
2022/04/08 01:25:07;;;;;;;1.73;1.17;;;;;;;;;;4914647;29;20052;-65
2022/04/08 01:27:35;;;;;;;3.15;1.20;;;;;;;;;;4915997;29;20052;-64
2022/04/08 01:30:02;;;;;;;1.95;1.30;;;;;;;;;;4914155;29;20100;-67
2022/04/08 01:32:28;;;;;;;2.65;1.42;;;;;;;;;;4911887;29;20083;-63
2022/04/08 01:34:54;;;;;;;4.88;1.20;;;;;;;;;;4909853;29;20075;-63
2022/04/08 01:37:21;;;;;;;3.97;1.25;;;;;;;;;;4903684;29;20055;-63
2022/04/08 01:39:47;;;;;;;2.35;1.20;;;;;;;;;;4906649;29;20116;-65
2022/04/08 01:42:14;;;;;;;5.63;1.27;;;;;;;;;;4907839;29;20305;-62
2022/04/08 01:44:40;;;;;;;2.97;1.10;;;;;;;;;;4912344;29;20063;-65
2022/04/08 01:47:06;;;;;;;1.90;1.23;;;;;;;;;;4915752;29;20614;-64
2022/04/08 01:49:32;;;;;;;1.95;1.00;;;;;;;;;;4911457;29;20090;-64
2022/04/08 01:51:58;;;;;;;2.33;1.20;;;;;;;;;;4914638;29;20055;-63
2022/04/08 01:54:24;;;;;;;1.85;1.10;;;;;;;;;;4907196;29;20126;-64
2022/04/08 01:56:50;;;;;;;4.78;1.42;;;;;;;;;;4914495;29;20494;-63
2022/04/08 01:59:18;;;;;;;3.10;1.40;;;;;;;;;;4916724;29;20508;-64
2022/04/08 02:01:44;;;;;;;3.78;1.30;;;;;;;;;;4920318;29;20047;-62
2022/04/08 02:04:10;;;;;;;2.70;1.50;;;;;;;;;;4914952;29;20050;-64
2022/04/08 02:06:36;;;;;;;1.90;1.20;;;;;;;;;;4914390;29;20041;-66
2022/04/08 02:09:03;;;;;;;6.43;1.25;;;;;;;;;;4913690;29;20096;-63
2022/04/08 02:11:29;;;;;;;2.40;1.30;;;;;;;;;;4913467;29;20044;-62
2022/04/08 02:13:54;;;;;;;2.38;1.20;;;;;;;;;;4911612;29;20055;-63
2022/04/08 02:16:21;;;;;;;2.22;1.20;;;;;;;;;;4912425;29;20103;-62
2022/04/08 02:18:48;;;;;;;4.70;1.30;;;;;;;;;;4912552;29;20067;-63
2022/04/08 02:21:19;;;;;;;4.18;1.30;;;;;;;;;;4912095;29;20489;-63
2022/04/08 02:23:55;;;;;;;2.25;1.17;;;;;;;;;;4913041;29;20112;-63
2022/04/08 02:26:21;;;;;;;2.70;1.30;;;;;;;;;;4912584;29;20043;-63
2022/04/08 02:28:46;;;;;;;3.75;1.40;;;;;;;;;;4911202;29;20048;-63
2022/04/08 02:31:13;;;;;;;2.92;1.33;;;;;;;;;;4908570;29;20062;-63
2022/04/08 02:33:39;;;;;;;3.53;1.27;;;;;;;;;;4910825;29;20048;-62
2022/04/08 02:36:06;;;;;;;2.05;1.20;;;;;;;;;;4872578;29;20052;-64
2022/04/08 02:38:32;;;;;;;1.80;1.38;;;;;;;;;;4869554;29;20049;-62
2022/04/08 02:40:57;;;;;;;5.05;1.30;;;;;;;;;;4869516;29;20143;-66
2022/04/08 02:43:23;;;;;;;2.13;1.20;;;;;;;;;;4868846;29;20055;-63
2022/04/08 02:45:50;;;;;;;4.45;1.20;;;;;;;;;;4873335;29;20049;-62
2022/04/08 02:48:35;;;;;;;3.10;1.85;;;;;;;;;;4865491;29;20057;-62
2022/04/08 02:51:01;;;;;;;3.83;1.13;;;;;;;;;;4872923;29;20525;-64
2022/04/08 02:53:27;;;;;;;2.10;1.27;;;;;;;;;;4881826;29;20048;-63
2022/04/08 02:55:53;;;;;;;4.05;1.17;;;;;;;;;;4869813;29;20105;-63
2022/04/08 02:58:19;;;;;;;4.25;1.40;;;;;;;;;;4873683;29;20053;-63
2022/04/08 03:00:45;;;;;;;3.63;1.33;;;;;;;;;;4875529;29;20055;-62
2022/04/08 03:03:10;;;;;;;5.38;1.35;;;;;;;;;;4875872;29;20080;-62
2022/04/08 03:05:36;;;;;;;4.13;1.10;;;;;;;;;;4873500;29;20053;-63
2022/04/08 03:08:02;;;;;;;7.63;1.67;;;;;;;;;;4873169;29;20499;-63
2022/04/08 03:10:28;;;;;;;2.72;1.10;;;;;;;;;;4873860;29;20430;-63
2022/04/08 03:12:54;;;;;;;1.83;1.00;;;;;;;;;;4874866;29;20067;-63
2022/04/08 03:15:20;;;;;;;5.18;1.10;;;;;;;;;;4875806;29;20061;-64
2022/04/08 03:17:46;;;;;;;2.80;1.10;;;;;;;;;;4874991;29;20188;-62
2022/04/08 03:20:12;;;;;;;3.58;1.30;;;;;;;;;;4873126;29;20041;-62
2022/04/08 03:22:38;;;;;;;3.47;1.23;;;;;;;;;;4874049;29;20474;-64
2022/04/08 03:25:05;;;;;;;3.10;1.55;;;;;;;;;;4874976;29;20041;-62
2022/04/08 03:27:31;;;;;;;2.33;1.23;;;;;;;;;;4871129;29;20048;-63
2022/04/08 03:29:57;;;;;;;2.05;1.10;;;;;;;;;;4865096;29;20504;-63
2022/04/08 03:32:23;;;;;;;6.45;1.40;;;;;;;;;;4874387;29;20045;-68
2022/04/08 03:34:57;;;;;;;6.05;1.40;;;;;;;;;;4890290;29;20103;-63
2022/04/08 03:37:27;;;;;;;4.60;2.35;;;;;;;;;;4908678;29;20071;-64
2022/04/08 03:39:53;;;;;;;3.53;1.27;;;;;;;;;;4907872;29;20402;-66
2022/04/08 03:42:19;;;;;;;4.68;1.35;;;;;;;;;;4910516;29;20545;-62
2022/04/08 03:44:46;;;;;;;4.07;1.40;;;;;;;;;;4910752;29;20416;-62
2022/04/08 03:47:15;;;;;;;2.30;1.20;;;;;;;;;;4909500;29;20048;-62
2022/04/08 03:49:41;;;;;;;4.22;1.30;;;;;;;;;;4910089;29;20159;-63
2022/04/08 03:52:10;;;;;;;2.55;1.25;;;;;;;;;;4911752;29;20132;-62
2022/04/08 03:54:39;;;;;;;3.40;1.20;;;;;;;;;;4910282;29;20048;-64
2022/04/08 03:57:05;;;;;;;4.68;1.45;;;;;;;;;;4910490;29;20092;-63
2022/04/08 03:59:31;;;;;;;7.10;1.48;;;;;;;;;;4913394;29;20044;-63
2022/04/08 04:01:58;;;;;;;3.55;1.35;;;;;;;;;;4910230;29;20052;-63
2022/04/08 04:04:24;;;;;;;3.65;1.55;;;;;;;;;;4907382;29;20070;-63
2022/04/08 04:06:50;;;;;;;3.72;1.15;;;;;;;;;;4912121;29;20044;-61
2022/04/08 04:09:16;;;;;;;7.15;1.38;;;;;;;;;;4908329;29;20056;-64
2022/04/08 04:11:42;;;;;;;2.38;1.40;;;;;;;;;;4910344;29;20043;-63
2022/04/08 04:14:08;;;;;;;2.60;1.40;;;;;;;;;;4908763;29;20051;-65
2022/04/08 04:16:34;;;;;;;4.90;1.50;;;;;;;;;;4909240;29;20071;-64
2022/04/08 04:19:01;;;;;;;5.53;1.40;;;;;;;;;;4908855;29;20048;-63
2022/04/08 04:21:27;;;;;;;3.72;1.20;;;;;;;;;;4911212;29;20075;-64
2022/04/08 04:23:53;;;;;;;5.00;1.55;;;;;;;;;;4912099;29;20102;-63
2022/04/08 04:26:19;;;;;;;8.10;1.58;;;;;;;;;;4910133;29;20087;-64
2022/04/08 04:28:44;;;;;;;2.25;1.60;;;;;;;;;;4910532;29;20036;-63
2022/04/08 04:31:11;;;;;;;5.95;1.60;;;;;;;;;;4907910;29;20272;-65
2022/04/08 04:33:36;;;;;;;3.58;1.67;;;;;;;;;;4908757;29;20112;-63
2022/04/08 04:36:02;;;;;;;3.65;1.27;;;;;;;;;;4908586;29;20063;-64
2022/04/08 04:38:28;;;;;;;10.20;1.70;;;;;;;;;;4909956;29;20136;-65
2022/04/08 04:40:54;;;;;;;4.85;1.70;;;;;;;;;;4896329;29;20458;-63
2022/04/08 04:43:20;;;;;;;5.28;1.60;;;;;;;;;;4912481;29;20139;-63
2022/04/08 04:45:46;;;;;;;3.72;1.92;;;;;;;;;;4898607;29;20052;-64
2022/04/08 04:48:11;;;;;;;8.55;1.80;;;;;;;;;;4912394;29;20048;-63
2022/04/08 04:50:38;;;;;;;5.40;1.75;;;;;;;;;;4911828;29;20119;-63
2022/04/08 04:53:05;;;;;;;3.90;1.50;;;;;;;;;;4893573;29;20576;-64
2022/04/08 04:55:31;;;;;;;4.68;1.60;;;;;;;;;;4906066;29;20072;-64
2022/04/08 04:57:57;;;;;;;13.80;3.13;;;;;;;;;;4904184;29;20131;-63
2022/04/08 05:00:23;;;;;;;5.63;1.58;;;;;;;;;;4904228;29;20080;-65
2022/04/08 05:02:49;;;;;;;3.08;1.52;;;;;;;;;;4907831;29;20120;-63
2022/04/08 05:05:15;;;;;;;4.15;1.70;;;;;;;;;;4909989;29;20044;-69
2022/04/08 05:07:41;;;;;;;5.88;1.58;;;;;;;;;;4906722;29;20828;-63
2022/04/08 05:10:08;;;;;;;6.15;1.70;;;;;;;;;;4889742;29;20056;-66
2022/04/08 05:12:37;;;;;;;8.82;1.98;;;;;;;;;;4903406;29;20056;-64
2022/04/08 05:15:06;;;;;;;4.53;1.85;;;;;;;;;;4893863;29;20059;-63
2022/04/08 05:17:35;;;;;;;4.18;1.50;;;;;;;;;;4907004;29;20063;-64
2022/04/08 05:20:08;;;;;;;5.18;1.83;;;;;;;;;;4905743;29;20075;-63
2022/04/08 05:22:34;;;;;;;5.78;1.80;;;;;;;;;;4906953;29;20111;-65
2022/04/08 05:25:00;;;;;;;3.55;1.50;;;;;;;;;;4906787;29;20151;-64
2022/04/08 05:27:27;;;;;;;4.57;1.77;;;;;;;;;;4904791;29;20044;-65
2022/04/08 05:29:53;;;;;;;4.60;1.80;;;;;;;;;;4903762;29;20138;-63
2022/04/08 05:32:19;;;;;;;5.95;1.90;;;;;;;;;;4902879;29;20083;-64
2022/04/08 05:34:44;;;;;;;4.47;1.92;;;;;;;;;;4907352;29;20087;-64
2022/04/08 05:37:12;;;;;;;6.10;2.13;;;;;;;;;;4907924;29;20040;-63
2022/04/08 05:39:38;;;;;;;7.15;2.15;;;;;;;;;;4889980;29;20048;-68
2022/04/08 05:42:05;;;;;;;4.30;1.80;;;;;;;;;;4907150;29;20174;-64
2022/04/08 05:44:31;;;;;;;3.03;1.63;;;;;;;;;;4905340;29;20560;-64
2022/04/08 05:46:57;;;;;;;7.30;1.85;;;;;;;;;;4904545;29;20048;-63
2022/04/08 05:49:23;;;;;;;4.50;2.28;;;;;;;;;;4906031;29;20557;-68
2022/04/08 05:51:49;;;;;;;5.68;2.78;;;;;;;;;;4902921;29;20148;-63
2022/04/08 05:54:15;;;;;;;6.00;2.20;;;;;;;;;;4902870;29;20155;-65
2022/04/08 05:56:41;;;;;;;4.22;1.92;;;;;;;;;;4909011;29;20135;-64
2022/04/08 05:59:07;;;;;;;4.53;1.92;;;;;;;;;;4908070;29;20075;-64
2022/04/08 06:01:33;;;;;;;5.50;1.80;;;;;;;;;;4905644;29;20059;-64
2022/04/08 06:03:58;;;;;;;5.80;2.03;;;;;;;;;;4905563;29;20059;-65
2022/04/08 06:06:25;;;;;;;5.57;1.70;;;;;;;;;;4908601;29;20710;-63
2022/04/08 06:08:50;;;;;;;6.97;1.70;;;;;;;;;;4891248;29;20088;-65
2022/04/08 06:11:16;;;;;;;7.88;1.98;;;;;;;;;;4905245;29;20112;-64
2022/04/08 06:13:43;;;;;;;7.32;1.58;;;;;;;;;;4906031;29;20056;-64
2022/04/08 06:16:08;;;;;;;6.00;1.90;;;;;;;;;;4904036;29;20509;-65
2022/04/08 06:18:35;;;;;;;5.88;2.08;;;;;;;;;;4905772;29;20483;-63
2022/04/08 06:21:01;;;;;;;3.00;1.60;;;;;;;;;;4901236;29;20051;-69
2022/04/08 06:23:27;;;;;;;5.38;1.77;;;;;;;;;;4905596;29;20511;-63
2022/04/08 06:25:53;;;;;;;7.53;1.90;;;;;;;;;;4906010;29;20051;-70
2022/04/08 06:28:19;;;;;;;4.55;1.80;;;;;;;;;;4905183;29;20056;-61
2022/04/08 06:30:45;;;;;;;12.18;2.08;;;;;;;;;;4904761;29;20043;-63
2022/04/08 06:33:11;;;;;;;7.13;2.17;;;;;;;;;;4905429;29;20183;-64
2022/04/08 06:35:38;;;;;;;7.55;2.08;;;;;;;;;;4902962;29;20542;-65
2022/04/08 06:38:06;;;;;;;9.73;3.15;;;;;;;;;;4903644;29;20229;-65
2022/04/08 06:40:35;;;;;;;8.88;2.00;;;;;;;;;;4905431;29;20064;-67
2022/04/08 06:43:02;;;;;;;7.72;2.40;;;;;;;;;;4906387;29;20480;-64
2022/04/08 06:45:28;;;;;;;4.20;1.92;;;;;;;;;;4908092;29;20047;-62
2022/04/08 06:47:55;;;;;;;5.20;2.05;;;;;;;;;;4907461;29;20910;-63
2022/04/08 06:50:21;;;;;;;8.27;1.75;;;;;;;;;;4904413;29;20144;-66
2022/04/08 06:52:47;;;;;;;6.07;1.40;;;;;;;;;;4906906;29;20254;-65
2022/04/08 06:55:14;;;;;;;6.43;1.83;;;;;;;;;;4908855;29;20131;-63
2022/04/08 06:57:41;;;;;;;5.10;1.50;;;;;;;;;;4905311;29;20554;-66
2022/04/08 07:00:09;;;;;;;8.57;2.00;;;;;;;;;;4906010;29;20292;-62
2022/04/08 07:02:36;;;;;;;12.48;2.00;;;;;;;;;;4903899;29;20060;-65
2022/04/08 07:05:03;;;;;;;7.80;1.80;;;;;;;;;;4905075;29;20086;-68
2022/04/08 07:07:32;;;;;;;10.85;1.90;;;;;;;;;;4906883;29;20122;-63
2022/04/08 07:09:58;;;;;;;10.48;2.10;;;;;;;;;;4906025;29;20059;-65
2022/04/08 07:12:25;;;;;;;4.00;1.58;;;;;;;;;;4904814;29;20114;-64
2022/04/08 07:14:51;;;;;;;5.20;1.98;;;;;;;;;;4904390;29;20052;-63
2022/04/08 07:17:17;;;;;;;5.00;1.83;;;;;;;;;;4906153;29;20131;-64
2022/04/08 07:19:43;;;;;;;11.82;2.05;;;;;;;;;;4905533;29;20127;-64
2022/04/08 07:22:09;;;;;;;13.05;2.00;;;;;;;;;;4912800;29;20048;-65
2022/04/08 07:24:35;;;;;;;9.77;2.17;;;;;;;;;;4903455;29;20091;-65
2022/04/08 07:27:01;;;;;;;9.68;2.33;;;;;;;;;;4904415;29;20064;-65
2022/04/08 07:29:27;;;;;;;7.38;2.28;;;;;;;;;;4903583;29;20078;-67
2022/04/08 07:31:53;;;;;;;5.93;2.10;;;;;;;;;;4904889;29;20521;-67
2022/04/08 07:34:19;;;;;;;5.45;2.05;;;;;;;;;;4905301;29;20056;-64
2022/04/08 07:36:44;;;;;;;7.57;2.17;;;;;;;;;;4908087;29;20062;-65
2022/04/08 07:39:10;;;;;;;7.18;2.63;;;;;;;;;;4902074;29;20486;-65
2022/04/08 07:41:36;;;;;;;9.32;1.90;;;;;;;;;;4903999;29;20060;-64
2022/04/08 07:44:04;;;;;;;9.02;2.25;;;;;;;;;;4906299;29;20067;-65
2022/04/08 07:46:30;;;;;;;4.72;1.63;;;;;;;;;;4906470;29;20089;-67
2022/04/08 07:48:56;;;;;;;6.53;2.03;;;;;;;;;;4906851;29;20445;-65
2022/04/08 07:51:22;;;;;;;4.75;1.80;;;;;;;;;;4903277;29;20048;-66
2022/04/08 07:53:48;;;;;;;4.20;1.67;;;;;;;;;;4905311;29;20048;-64
2022/04/08 07:56:13;;;;;;;6.88;1.52;;;;;;;;;;4889406;29;20044;-67
2022/04/08 07:58:39;;;;;;;6.38;2.00;;;;;;;;;;4906330;29;20052;-64
2022/04/08 08:01:05;;;;;;;7.88;1.77;;;;;;;;;;4905517;29;20052;-66
2022/04/08 08:03:34;;;;;;;7.35;1.85;;;;;;;;;;4907734;29;20589;-66
2022/04/08 08:06:03;;;;;;;8.95;1.90;;;;;;;;;;4907030;29;20052;-65
2022/04/08 08:08:29;;;;;;;5.18;1.88;;;;;;;;;;4906850;29;20056;-64
2022/04/08 08:10:55;;;;;;;8.43;1.98;;;;;;;;;;4904924;29;20437;-65
2022/04/08 08:13:22;;;;;;;5.45;1.80;;;;;;;;;;4908199;29;20048;-65
2022/04/08 08:15:48;;;;;;;5.82;1.85;;;;;;;;;;4910237;29;20056;-64
2022/04/08 08:18:13;;;;;;;9.75;1.65;;;;;;;;;;4894439;29;20056;-66
2022/04/08 08:20:39;;;;;;;4.57;1.70;;;;;;;;;;4908197;29;20067;-68
2022/04/08 08:23:08;;;;;;;7.68;1.85;;;;;;;;;;4908737;29;20142;-65
2022/04/08 08:25:34;;;;;;;3.97;1.42;;;;;;;;;;4911088;29;20052;-66
2022/04/08 08:28:04;;;;;;;5.22;1.60;;;;;;;;;;4911508;29;20549;-65
2022/04/08 08:30:31;;;;;;;7.32;1.42;;;;;;;;;;4909934;29;20063;-65
2022/04/08 08:33:04;;;;;;;10.40;1.40;;;;;;;;;;4911457;29;20138;-65
2022/04/08 08:35:32;;;;;;;3.15;1.55;;;;;;;;;;4907736;29;20604;-67
2022/04/08 08:37:59;;;;;;;13.57;1.80;;;;;;;;;;4909286;29;20056;-65
2022/04/08 08:40:28;;;;;;;9.35;1.30;;;;;;;;;;4906886;29;20071;-65
2022/04/08 08:42:54;;;;;;;6.80;1.73;;;;;;;;;;4907278;29;20044;-67
2022/04/08 08:45:20;;;;;;;7.25;1.40;;;;;;;;;;4906617;29;20513;-68
2022/04/08 08:47:48;;;;;;;6.55;1.70;;;;;;;;;;4909564;29;20060;-74
2022/04/08 08:50:16;;;;;;;5.93;1.40;;;;;;;;;;4910511;29;20095;-69
2022/04/08 08:52:42;;;;;;;4.93;1.20;;;;;;;;;;4911716;29;20056;-66
2022/04/08 08:55:08;;;;;;;7.32;1.73;;;;;;;;;;4910071;29;20414;-65
2022/04/08 08:57:34;;;;;;;5.90;1.23;;;;;;;;;;4907102;29;20528;-66
2022/04/08 09:00:13;;;;;;;6.85;1.60;;;;;;;;;;4907468;29;20524;-67
2022/04/08 09:02:40;;;;;;;2.22;1.20;;;;;;;;;;4906177;29;20063;-62
2022/04/08 09:05:12;;;;;;;4.15;1.17;;;;;;;;;;4906599;29;20104;-64
2022/04/08 09:07:38;;;;;;;8.65;1.80;;;;;;;;;;4909838;29;20510;-66
2022/04/08 09:10:04;;;;;;;6.18;1.52;;;;;;;;;;4908338;29;20048;-65
2022/04/08 09:12:30;;;;;;;5.72;1.67;;;;;;;;;;4905311;29;20052;-63
2022/04/08 09:14:58;;;;;;;8.70;1.67;;;;;;;;;;4908059;29;20083;-64
2022/04/08 09:17:26;;;;;;;6.28;1.70;;;;;;;;;;4907186;29;20052;-63
2022/04/08 09:19:54;;;;;;;4.68;1.50;;;;;;;;;;4906679;29;20048;-63
2022/04/08 09:22:21;;;;;;;2.45;1.48;;;;;;;;;;4907318;29;20060;-64
2022/04/08 09:24:48;;;;;;;4.00;1.55;;;;;;;;;;4910760;29;20060;-65
2022/04/08 09:27:15;;;;;;;7.75;1.58;;;;;;;;;;4892230;29;20086;-65
2022/04/08 09:29:44;;;;;;;4.80;2.20;;;;;;;;;;4910074;29;20048;-62
2022/04/08 09:32:12;;;;;;;4.15;2.00;;;;;;;;;;4907841;29;20082;-61
2022/04/08 09:34:41;;;;;;;6.00;2.00;;;;;;;;;;4915975;29;20917;-66
2022/04/08 09:37:12;;;;;;;3.83;1.77;;;;;;;;;;4914571;29;20464;-64
2022/04/08 09:40:01;;;;;;;4.00;1.70;;;;;;;;;;4906763;29;20082;-63
2022/04/08 09:42:45;;;;;;;8.20;1.95;;;;;;;;;;4905215;29;20064;-63
2022/04/08 09:45:11;;;;;;;5.72;2.00;;;;;;;;;;4909065;29;20055;-62
2022/04/08 09:47:38;;;;;;;6.20;1.67;;;;;;;;;;4904637;29;20060;-64
2022/04/08 09:50:10;;;;;;;3.67;1.67;;;;;;;;;;4904690;29;20056;-66
2022/04/08 09:52:39;;;;;;;3.85;1.70;;;;;;;;;;4905531;29;20159;-63
2022/04/08 09:55:09;;;;;;;6.90;1.63;;;;;;;;;;4904841;29;20047;-64
2022/04/08 09:57:39;;;;;;;5.53;1.70;;;;;;;;;;4906719;29;20116;-63
2022/04/08 10:00:07;;;;;;;6.93;2.08;;;;;;;;;;4908681;29;20941;-65
2022/04/08 10:02:44;;;;;;;6.57;2.17;;;;;;;;;;4908964;29;20091;-63
2022/04/08 10:05:11;;;;;;;5.28;2.13;;;;;;;;;;4893394;29;20056;-64
2022/04/08 10:07:39;;;;;;;6.03;2.05;;;;;;;;;;4908989;29;20075;-66
2022/04/08 10:10:21;;;;;;;7.75;1.92;;;;;;;;;;4910753;29;20058;-64
2022/04/08 10:13:30;;;;;;;5.68;1.60;;;;;;;;;;4909649;29;20048;-64
2022/04/08 10:16:16;;;;;;;4.20;1.63;;;;;;;;;;4909399;29;20071;-63
2022/04/08 10:18:44;;;;;;;2.90;1.45;;;;;;;;;;4909924;29;20052;-64
2022/04/08 10:21:10;;;;;;;3.88;1.63;;;;;;;;;;4906081;29;20048;-63
2022/04/08 10:23:39;;;;;;;6.00;1.73;;;;;;;;;;4907484;29;20060;-62
2022/04/08 10:26:15;;;;;;;4.97;1.98;;;;;;;;;;4892219;29;20139;-63
2022/04/08 10:28:41;;;;;;;5.07;1.73;;;;;;;;;;4904465;29;20057;-64
2022/04/08 10:31:19;;;;;;;4.40;2.08;;;;;;;;;;4906605;29;20627;-64
2022/04/08 10:33:56;;;;;;;7.40;1.92;;;;;;;;;;4891402;29;20083;-64
2022/04/08 10:36:39;;;;;;;4.82;1.80;;;;;;;;;;4902921;29;20052;-64
2022/04/08 10:39:31;;;;;;;5.50;1.85;;;;;;;;;;4889688;29;20460;-66
2022/04/08 10:41:59;;;;;;;5.38;1.85;;;;;;;;;;4901942;29;20073;-65
2022/04/08 10:44:37;;;;;;;3.85;1.70;;;;;;;;;;4906912;29;20060;-66
2022/04/08 10:47:10;;;;;;;5.03;1.77;;;;;;;;;;4907827;29;20056;-63
2022/04/08 10:49:52;;;;;;;5.97;1.77;;;;;;;;;;4905977;29;20056;-65
2022/04/08 10:52:22;;;;;;;7.43;1.65;;;;;;;;;;4904940;29;20130;-65
2022/04/08 10:54:49;;;;;;;3.95;1.65;;;;;;;;;;4907539;29;20048;-66
2022/04/08 10:57:26;;;;;;;3.00;1.33;;;;;;;;;;4890121;29;20052;-64
2022/04/08 10:59:55;;;;;;;3.15;1.45;;;;;;;;;;4906745;29;20067;-64
2022/04/08 11:02:21;;;;;;;5.15;1.50;;;;;;;;;;4904836;29;20048;-64
2022/04/08 11:04:47;;;;;;;8.50;1.67;;;;;;;;;;4906953;29;20083;-65
2022/04/08 11:07:13;;;;;;;4.05;1.73;;;;;;;;;;4906688;29;20052;-65
2022/04/08 11:09:40;;;;;;;1.73;1.10;;;;;;;;;;4907315;29;20437;-66
2022/04/08 11:12:06;;;;;;;3.10;1.40;;;;;;;;;;4903455;29;20052;-71
2022/04/08 11:14:32;;;;;;;10.00;1.80;;;;;;;;;;4906493;29;20056;-65
2022/04/08 11:16:58;;;;;;;6.57;1.52;;;;;;;;;;4907555;29;20083;-66
2022/04/08 11:19:24;;;;;;;3.70;1.45;;;;;;;;;;4905711;29;20047;-66
2022/04/08 11:21:51;;;;;;;5.22;1.60;;;;;;;;;;4905810;29;20044;-66
2022/04/08 11:24:18;;;;;;;3.22;1.50;;;;;;;;;;4908978;29;20181;-64
2022/04/08 11:26:48;;;;;;;5.55;1.65;;;;;;;;;;4902723;29;20063;-68
2022/04/08 11:29:17;;;;;;;3.30;1.38;;;;;;;;;;4905232;29;20072;-64
2022/04/08 11:31:44;;;;;;;6.70;1.30;;;;;;;;;;4902634;29;20074;-65
2022/04/08 11:34:13;;;;;;;3.92;1.38;;;;;;;;;;4902729;29;20123;-67
2022/04/08 11:36:39;;;;;;;3.97;1.60;;;;;;;;;;4905722;29;20537;-65
2022/04/08 11:39:06;;;;;;;2.67;1.35;;;;;;;;;;4905617;29;20128;-64
2022/04/08 11:41:34;;;;;;;4.75;1.50;;;;;;;;;;4904029;29;20059;-67
2022/04/08 11:44:02;;;;;;;3.45;1.40;;;;;;;;;;4886480;29;20047;-64
2022/04/08 11:46:28;;;;;;;7.07;1.30;;;;;;;;;;4906682;29;20948;-65
2022/04/08 11:48:53;;;;;;;1.83;1.33;;;;;;;;;;4902703;29;20044;-64
2022/04/08 11:51:21;;;;;;;3.85;1.13;;;;;;;;;;4897818;29;20048;-65
2022/04/08 11:53:49;;;;;;;4.78;1.40;;;;;;;;;;4905249;29;20044;-69
2022/04/08 11:56:25;;;;;;;5.55;1.35;;;;;;;;;;4905231;29;20139;-65
2022/04/08 11:58:54;;;;;;;4.70;1.30;;;;;;;;;;4907091;29;22354;-71
2022/04/08 12:01:19;;;;;;;9.05;1.20;;;;;;;;;;4909252;29;20052;-67
2022/04/08 12:03:45;;;;;;;5.60;1.45;;;;;;;;;;4905261;29;20044;-65
2022/04/08 12:06:11;;;;;;;2.95;1.20;;;;;;;;;;4904150;29;20064;-68
2022/04/08 12:08:37;;;;;;;3.40;1.42;;;;;;;;;;4902003;29;20421;-68
2022/04/08 12:11:08;;;;;;;3.17;1.40;;;;;;;;;;4902281;29;20067;-65
2022/04/08 12:13:35;;;;;;;4.50;1.30;;;;;;;;;;4904917;29;20782;-65
2022/04/08 12:16:00;;;;;;;7.50;1.40;;;;;;;;;;4908257;29;20051;-67
2022/04/08 12:18:33;;;;;;;4.68;1.40;;;;;;;;;;4903163;29;20048;-66
2022/04/08 12:21:04;;;;;;;3.80;1.30;;;;;;;;;;4897982;29;20063;-64
2022/04/08 12:23:31;;;;;;;3.60;1.33;;;;;;;;;;4904085;29;20063;-66
2022/04/08 12:25:59;;;;;;;10.68;1.40;;;;;;;;;;4905627;29;20067;-66
2022/04/08 12:28:32;;;;;;;2.13;1.10;;;;;;;;;;4905606;29;20215;-65
2022/04/08 12:31:10;;;;;;;3.58;1.52;;;;;;;;;;4903778;29;20399;-67
2022/04/08 12:33:36;;;;;;;3.25;1.48;;;;;;;;;;4888145;29;20530;-70
2022/04/08 12:36:02;;;;;;;4.03;1.50;;;;;;;;;;4903520;29;20196;-68
2022/04/08 12:38:29;;;;;;;2.50;1.25;;;;;;;;;;4901730;29;20048;-67
2022/04/08 12:40:57;;;;;;;2.47;1.02;;;;;;;;;;4892724;29;20052;-66
2022/04/08 12:43:23;;;;;;;7.05;1.20;;;;;;;;;;4902737;29;20055;-66
2022/04/08 12:45:49;;;;;;;3.20;1.35;;;;;;;;;;4907091;29;20422;-66
2022/04/08 12:48:15;;;;;;;8.00;1.70;;;;;;;;;;4887784;29;20093;-67
2022/04/08 12:50:41;;;;;;;3.50;1.40;;;;;;;;;;4901047;29;20135;-65
2022/04/08 12:53:07;;;;;;;2.65;1.30;;;;;;;;;;4888985;29;20167;-66
2022/04/08 12:55:33;;;;;;;2.67;1.30;;;;;;;;;;4903133;29;20070;-65
2022/04/08 12:57:59;;;;;;;4.05;1.50;;;;;;;;;;4903653;29;20048;-72
2022/04/08 13:00:25;;;;;;;4.15;1.10;;;;;;;;;;4903665;29;20067;-66
2022/04/08 13:02:54;;;;;;;5.15;1.40;;;;;;;;;;4906444;29;20060;-67
2022/04/08 13:05:20;;;;;;;9.13;1.20;;;;;;;;;;4903714;29;20052;-64
2022/04/08 13:07:46;;;;;;;3.80;1.50;;;;;;;;;;4905080;29;20159;-64
2022/04/08 13:10:12;;;;;;;4.50;1.10;;;;;;;;;;4908634;29;20197;-67
2022/04/08 13:12:38;;;;;;;4.18;1.38;;;;;;;;;;4908482;29;20433;-65
2022/04/08 13:15:06;;;;;;;6.18;1.25;;;;;;;;;;4906602;29;20514;-67
2022/04/08 13:17:32;;;;;;;3.67;1.20;;;;;;;;;;4910241;29;20874;-66
2022/04/08 13:19:58;;;;;;;2.42;1.33;;;;;;;;;;4907581;29;20108;-66
2022/04/08 13:22:24;;;;;;;4.35;1.30;;;;;;;;;;4911344;29;20059;-66
2022/04/08 13:24:50;;;;;;;2.67;1.50;;;;;;;;;;4912592;29;20542;-64
2022/04/08 13:27:16;;;;;;;1.83;1.25;;;;;;;;;;4907689;29;20135;-66
2022/04/08 13:29:48;;;;;;;2.78;1.20;;;;;;;;;;4909490;29;20052;-66
2022/04/08 13:32:17;;;;;;;2.70;1.13;;;;;;;;;;4904601;29;20426;-73
2022/04/08 13:34:44;;;;;;;3.00;1.60;;;;;;;;;;4905528;29;20087;-68
2022/04/08 13:37:10;;;;;;;2.70;1.20;;;;;;;;;;4907308;29;20083;-65
2022/04/08 13:39:36;;;;;;;4.55;1.35;;;;;;;;;;4905512;29;20067;-65
2022/04/08 13:42:03;;;;;;;1.98;1.00;;;;;;;;;;4905625;29;21051;-65
2022/04/08 13:44:30;;;;;;;3.78;1.25;;;;;;;;;;4908308;29;20163;-65
2022/04/08 13:46:57;;;;;;;12.63;1.48;;;;;;;;;;4909059;29;20085;-67
2022/04/08 13:49:23;;;;;;;7.93;1.38;;;;;;;;;;4909224;29;20068;-66
2022/04/08 13:51:49;;;;;;;5.60;1.33;;;;;;;;;;4904883;29;20383;-68
2022/04/08 13:54:15;;;;;;;8.30;1.10;;;;;;;;;;4905791;29;20044;-65
2022/04/08 13:56:41;;;;;;;2.90;1.00;;;;;;;;;;4904813;29;20123;-68
2022/04/08 13:59:08;;;;;;;3.35;1.30;;;;;;;;;;4889713;29;20080;-65
2022/04/08 14:01:35;;;;;;;6.65;1.17;;;;;;;;;;4905866;29;20056;-66
2022/04/08 14:04:00;;;;;;;6.18;1.17;;;;;;;;;;4892422;29;20131;-66
2022/04/08 14:06:27;;;;;;;4.05;1.13;;;;;;;;;;4906936;29;20040;-65
2022/04/08 14:08:54;;;;;;;6.32;1.38;;;;;;;;;;4907019;29;20092;-65
2022/04/08 14:11:19;;;;;;;6.90;1.05;;;;;;;;;;4901908;29;20051;-66
2022/04/08 14:13:45;;;;;;;5.70;1.30;;;;;;;;;;4907360;29;20047;-65
2022/04/08 14:16:11;;;;;;;11.25;1.40;;;;;;;;;;4907274;29;20067;-65
2022/04/08 14:18:37;;;;;;;7.78;1.30;;;;;;;;;;4907911;29;20060;-66
2022/04/08 14:21:03;;;;;;;2.83;1.00;;;;;;;;;;4905804;29;20059;-64
2022/04/08 14:23:32;;;;;;;5.07;1.00;;;;;;;;;;4907824;29;20142;-65
2022/04/08 14:25:58;;;;;;;2.35;1.10;;;;;;;;;;4906203;29;20062;-65
2022/04/08 14:28:24;;;;;;;3.25;1.10;;;;;;;;;;4899744;29;20056;-66
2022/04/08 14:30:51;;;;;;;2.22;1.10;;;;;;;;;;4905329;29;20055;-65
2022/04/08 14:33:18;;;;;;;2.60;0.80;;;;;;;;;;4906771;29;20048;-68
2022/04/08 14:35:44;;;;;;;6.93;1.23;;;;;;;;;;4906079;29;20074;-64
2022/04/08 14:38:10;;;;;;;4.85;1.40;;;;;;;;;;4906327;29;20060;-66
2022/04/08 14:40:36;;;;;;;3.35;1.20;;;;;;;;;;4903840;29;20059;-65
2022/04/08 14:43:02;;;;;;;3.00;1.00;;;;;;;;;;4905706;29;20052;-66
2022/04/08 14:45:28;;;;;;;1.85;0.90;;;;;;;;;;4903055;29;20066;-66